sensor_id;sensor_type;location;lat;lon;timestamp;temperature;humidity
1546;DHT22;766;51.502;9.752;2023-02-13T00:01:38;5.60;99.90
1546;DHT22;766;51.502;9.752;2023-02-13T00:04:07;5.50;99.90
1546;DHT22;766;51.502;9.752;2023-02-13T00:06:35;5.50;99.90
1546;DHT22;766;51.502;9.752;2023-02-13T00:09:06;5.60;99.90
1546;DHT22;766;51.502;9.752;2023-02-13T00:11:39;5.60;99.90
1546;DHT22;766;51.502;9.752;2023-02-13T00:14:08;5.70;99.90
1546;DHT22;766;51.502;9.752;2023-02-13T00:16:37;5.90;99.90
1546;DHT22;766;51.502;9.752;2023-02-13T00:19:07;6.00;99.90
1546;DHT22;766;51.502;9.752;2023-02-13T00:21:36;5.90;99.90
1546;DHT22;766;51.502;9.752;2023-02-13T00:24:08;5.90;99.90
1546;DHT22;766;51.502;9.752;2023-02-13T00:26:36;5.70;99.90
1546;DHT22;766;51.502;9.752;2023-02-13T00:29:09;5.70;99.90
1546;DHT22;766;51.502;9.752;2023-02-13T00:31:38;5.90;99.90
1546;DHT22;766;51.502;9.752;2023-02-13T00:34:07;5.90;99.90
1546;DHT22;766;51.502;9.752;2023-02-13T00:36:38;5.80;99.90
1546;DHT22;766;51.502;9.752;2023-02-13T00:39:07;5.80;99.90
1546;DHT22;766;51.502;9.752;2023-02-13T00:41:37;5.80;99.90
1546;DHT22;766;51.502;9.752;2023-02-13T00:44:06;5.80;99.90
1546;DHT22;766;51.502;9.752;2023-02-13T00:46:34;5.70;99.90
1546;DHT22;766;51.502;9.752;2023-02-13T00:49:04;5.80;99.90
1546;DHT22;766;51.502;9.752;2023-02-13T00:51:33;5.80;99.90
1546;DHT22;766;51.502;9.752;2023-02-13T00:54:02;5.50;99.90
1546;DHT22;766;51.502;9.752;2023-02-13T00:56:31;5.50;99.90
1546;DHT22;766;51.502;9.752;2023-02-13T00:58:59;5.40;99.90
1546;DHT22;766;51.502;9.752;2023-02-13T01:01:27;5.50;99.90
1546;DHT22;766;51.502;9.752;2023-02-13T01:03:56;5.50;99.90
1546;DHT22;766;51.502;9.752;2023-02-13T01:06:26;5.50;99.90
1546;DHT22;766;51.502;9.752;2023-02-13T01:08:54;5.40;99.90
1546;DHT22;766;51.502;9.752;2023-02-13T01:11:23;5.60;99.90
1546;DHT22;766;51.502;9.752;2023-02-13T01:13:51;5.60;99.90
1546;DHT22;766;51.502;9.752;2023-02-13T01:16:20;5.60;99.90
1546;DHT22;766;51.502;9.752;2023-02-13T01:18:48;5.70;99.90
1546;DHT22;766;51.502;9.752;2023-02-13T01:21:18;5.70;99.90
1546;DHT22;766;51.502;9.752;2023-02-13T01:23:48;5.70;99.90
1546;DHT22;766;51.502;9.752;2023-02-13T01:26:19;5.70;99.90
1546;DHT22;766;51.502;9.752;2023-02-13T01:28:53;5.60;99.90
1546;DHT22;766;51.502;9.752;2023-02-13T01:31:23;5.70;99.90
1546;DHT22;766;51.502;9.752;2023-02-13T01:33:54;5.70;99.90
1546;DHT22;766;51.502;9.752;2023-02-13T01:36:23;5.80;99.90
1546;DHT22;766;51.502;9.752;2023-02-13T01:38:54;5.70;99.90
1546;DHT22;766;51.502;9.752;2023-02-13T01:41:24;5.50;99.90
1546;DHT22;766;51.502;9.752;2023-02-13T01:43:55;5.50;99.90
1546;DHT22;766;51.502;9.752;2023-02-13T01:46:26;5.50;99.90
1546;DHT22;766;51.502;9.752;2023-02-13T01:48:59;5.50;99.90
1546;DHT22;766;51.502;9.752;2023-02-13T01:51:31;5.40;99.90
1546;DHT22;766;51.502;9.752;2023-02-13T01:54:06;5.40;99.90
1546;DHT22;766;51.502;9.752;2023-02-13T01:56:37;5.70;99.90
1546;DHT22;766;51.502;9.752;2023-02-13T01:59:11;5.40;99.90
1546;DHT22;766;51.502;9.752;2023-02-13T02:01:41;5.30;99.90
1546;DHT22;766;51.502;9.752;2023-02-13T02:04:13;5.40;99.90
1546;DHT22;766;51.502;9.752;2023-02-13T02:06:47;5.40;99.90
1546;DHT22;766;51.502;9.752;2023-02-13T02:09:21;5.60;99.90
1546;DHT22;766;51.502;9.752;2023-02-13T02:11:55;5.50;99.90
1546;DHT22;766;51.502;9.752;2023-02-13T02:14:26;5.50;99.90
1546;DHT22;766;51.502;9.752;2023-02-13T02:16:55;5.60;99.90
1546;DHT22;766;51.502;9.752;2023-02-13T02:19:31;5.60;99.90
1546;DHT22;766;51.502;9.752;2023-02-13T02:22:25;5.60;99.90
1546;DHT22;766;51.502;9.752;2023-02-13T02:25:19;5.70;99.90
1546;DHT22;766;51.502;9.752;2023-02-13T02:34:12;5.50;99.90
1546;DHT22;766;51.502;9.752;2023-02-13T02:36:56;5.50;99.90
1546;DHT22;766;51.502;9.752;2023-02-13T02:39:36;5.40;99.90
1546;DHT22;766;51.502;9.752;2023-02-13T02:42:16;5.50;99.90
1546;DHT22;766;51.502;9.752;2023-02-13T02:44:50;5.50;99.90
1546;DHT22;766;51.502;9.752;2023-02-13T02:47:25;5.50;99.90
1546;DHT22;766;51.502;9.752;2023-02-13T02:50:18;5.50;99.90
1546;DHT22;766;51.502;9.752;2023-02-13T02:52:59;5.60;99.90
1546;DHT22;766;51.502;9.752;2023-02-13T02:55:36;5.50;99.90
1546;DHT22;766;51.502;9.752;2023-02-13T02:58:11;5.40;99.90
1546;DHT22;766;51.502;9.752;2023-02-13T03:01:00;5.40;99.90
1546;DHT22;766;51.502;9.752;2023-02-13T03:03:48;5.20;99.90
1546;DHT22;766;51.502;9.752;2023-02-13T03:06:37;5.30;99.90
1546;DHT22;766;51.502;9.752;2023-02-13T03:09:10;5.20;99.90
1546;DHT22;766;51.502;9.752;2023-02-13T03:11:58;5.30;99.90
1546;DHT22;766;51.502;9.752;2023-02-13T03:14:43;5.40;99.90
1546;DHT22;766;51.502;9.752;2023-02-13T03:17:14;5.30;99.90
1546;DHT22;766;51.502;9.752;2023-02-13T03:20:19;5.30;99.90
1546;DHT22;766;51.502;9.752;2023-02-13T03:23:22;5.30;99.90
1546;DHT22;766;51.502;9.752;2023-02-13T03:26:08;5.20;99.90
1546;DHT22;766;51.502;9.752;2023-02-13T03:28:47;5.20;99.90
1546;DHT22;766;51.502;9.752;2023-02-13T03:31:41;5.10;99.90
1546;DHT22;766;51.502;9.752;2023-02-13T03:34:14;5.20;99.90
1546;DHT22;766;51.502;9.752;2023-02-13T03:36:47;5.10;99.90
1546;DHT22;766;51.502;9.752;2023-02-13T03:39:44;5.10;99.90
1546;DHT22;766;51.502;9.752;2023-02-13T03:42:22;5.20;99.90
1546;DHT22;766;51.502;9.752;2023-02-13T03:44:57;5.00;99.90
1546;DHT22;766;51.502;9.752;2023-02-13T03:47:44;4.90;99.90
1546;DHT22;766;51.502;9.752;2023-02-13T03:50:16;4.90;99.90
1546;DHT22;766;51.502;9.752;2023-02-13T03:52:48;5.00;99.90
1546;DHT22;766;51.502;9.752;2023-02-13T03:55:21;5.10;99.90
1546;DHT22;766;51.502;9.752;2023-02-13T03:58:11;5.00;99.90
1546;DHT22;766;51.502;9.752;2023-02-13T04:01:05;5.00;99.90
1546;DHT22;766;51.502;9.752;2023-02-13T04:03:41;4.90;99.90
1546;DHT22;766;51.502;9.752;2023-02-13T04:06:13;4.80;99.90
1546;DHT22;766;51.502;9.752;2023-02-13T04:08:43;4.90;99.90
1546;DHT22;766;51.502;9.752;2023-02-13T04:11:14;4.90;99.90
1546;DHT22;766;51.502;9.752;2023-02-13T04:13:48;4.90;99.90
1546;DHT22;766;51.502;9.752;2023-02-13T04:16:23;4.90;99.90
1546;DHT22;766;51.502;9.752;2023-02-13T04:18:55;4.80;99.90
1546;DHT22;766;51.502;9.752;2023-02-13T04:21:25;4.90;99.90
1546;DHT22;766;51.502;9.752;2023-02-13T04:23:53;4.90;99.90
1546;DHT22;766;51.502;9.752;2023-02-13T04:26:28;4.90;99.90
1546;DHT22;766;51.502;9.752;2023-02-13T04:28:59;4.90;99.90
1546;DHT22;766;51.502;9.752;2023-02-13T04:31:29;4.90;99.90
1546;DHT22;766;51.502;9.752;2023-02-13T04:33:57;4.90;99.90
1546;DHT22;766;51.502;9.752;2023-02-13T04:36:26;4.70;99.90
1546;DHT22;766;51.502;9.752;2023-02-13T04:38:54;4.70;99.90
1546;DHT22;766;51.502;9.752;2023-02-13T04:41:25;4.60;99.90
1546;DHT22;766;51.502;9.752;2023-02-13T04:43:54;4.60;99.90
1546;DHT22;766;51.502;9.752;2023-02-13T04:46:23;4.50;99.90
1546;DHT22;766;51.502;9.752;2023-02-13T04:48:51;4.50;99.90
1546;DHT22;766;51.502;9.752;2023-02-13T04:51:19;4.50;99.90
1546;DHT22;766;51.502;9.752;2023-02-13T04:53:48;4.50;99.90
1546;DHT22;766;51.502;9.752;2023-02-13T04:56:16;4.50;99.90
1546;DHT22;766;51.502;9.752;2023-02-13T04:58:49;4.70;99.90
1546;DHT22;766;51.502;9.752;2023-02-13T05:01:21;4.50;99.90
1546;DHT22;766;51.502;9.752;2023-02-13T05:03:51;4.40;99.90
1546;DHT22;766;51.502;9.752;2023-02-13T05:06:22;4.50;99.90
1546;DHT22;766;51.502;9.752;2023-02-13T05:08:51;4.40;99.90
1546;DHT22;766;51.502;9.752;2023-02-13T05:11:19;4.50;99.90
1546;DHT22;766;51.502;9.752;2023-02-13T05:13:49;4.50;99.90
1546;DHT22;766;51.502;9.752;2023-02-13T05:16:17;4.50;99.90
1546;DHT22;766;51.502;9.752;2023-02-13T05:18:46;4.50;99.90
1546;DHT22;766;51.502;9.752;2023-02-13T05:21:14;4.40;99.90
1546;DHT22;766;51.502;9.752;2023-02-13T05:24:00;4.40;99.90
1546;DHT22;766;51.502;9.752;2023-02-13T05:26:29;4.40;99.90
1546;DHT22;766;51.502;9.752;2023-02-13T05:29:09;4.40;99.90
1546;DHT22;766;51.502;9.752;2023-02-13T05:31:50;4.40;99.90
1546;DHT22;766;51.502;9.752;2023-02-13T05:34:23;4.30;99.90
1546;DHT22;766;51.502;9.752;2023-02-13T05:36:51;4.30;99.90
1546;DHT22;766;51.502;9.752;2023-02-13T05:39:21;4.10;99.90
1546;DHT22;766;51.502;9.752;2023-02-13T05:41:49;4.20;99.90
1546;DHT22;766;51.502;9.752;2023-02-13T05:44:20;4.10;99.90
1546;DHT22;766;51.502;9.752;2023-02-13T05:46:49;4.10;99.90
1546;DHT22;766;51.502;9.752;2023-02-13T05:49:19;4.20;99.90
1546;DHT22;766;51.502;9.752;2023-02-13T05:55:07;4.10;99.90
1546;DHT22;766;51.502;9.752;2023-02-13T05:57:36;4.10;99.90
1546;DHT22;766;51.502;9.752;2023-02-13T06:00:09;4.10;99.90
1546;DHT22;766;51.502;9.752;2023-02-13T06:02:37;4.20;99.90
1546;DHT22;766;51.502;9.752;2023-02-13T06:05:07;4.20;99.90
1546;DHT22;766;51.502;9.752;2023-02-13T06:07:36;4.30;99.90
1546;DHT22;766;51.502;9.752;2023-02-13T06:10:06;4.20;99.90
1546;DHT22;766;51.502;9.752;2023-02-13T06:12:35;4.20;99.90
1546;DHT22;766;51.502;9.752;2023-02-13T06:15:05;4.10;99.90
1546;DHT22;766;51.502;9.752;2023-02-13T06:17:35;4.20;99.90
1546;DHT22;766;51.502;9.752;2023-02-13T06:20:05;4.10;99.90
1546;DHT22;766;51.502;9.752;2023-02-13T06:22:35;4.10;99.90
1546;DHT22;766;51.502;9.752;2023-02-13T06:25:07;4.20;99.90
1546;DHT22;766;51.502;9.752;2023-02-13T06:27:37;4.10;99.90
1546;DHT22;766;51.502;9.752;2023-02-13T06:30:06;4.20;99.90
1546;DHT22;766;51.502;9.752;2023-02-13T06:32:37;4.30;99.90
1546;DHT22;766;51.502;9.752;2023-02-13T06:35:06;4.30;99.90
1546;DHT22;766;51.502;9.752;2023-02-13T06:37:36;4.20;99.90
1546;DHT22;766;51.502;9.752;2023-02-13T06:40:06;4.20;99.90
1546;DHT22;766;51.502;9.752;2023-02-13T06:42:35;4.20;99.90
1546;DHT22;766;51.502;9.752;2023-02-13T06:45:04;4.30;99.90
1546;DHT22;766;51.502;9.752;2023-02-13T06:47:34;4.30;99.90
1546;DHT22;766;51.502;9.752;2023-02-13T06:50:05;4.30;99.90
1546;DHT22;766;51.502;9.752;2023-02-13T06:52:35;4.20;99.90
1546;DHT22;766;51.502;9.752;2023-02-13T06:55:06;4.10;99.90
1546;DHT22;766;51.502;9.752;2023-02-13T06:57:36;4.10;99.90
1546;DHT22;766;51.502;9.752;2023-02-13T07:00:05;4.20;99.90
1546;DHT22;766;51.502;9.752;2023-02-13T07:02:36;4.20;99.90
1546;DHT22;766;51.502;9.752;2023-02-13T07:05:07;4.20;99.90
1546;DHT22;766;51.502;9.752;2023-02-13T07:07:36;4.20;99.90
1546;DHT22;766;51.502;9.752;2023-02-13T07:10:06;4.10;99.90
1546;DHT22;766;51.502;9.752;2023-02-13T07:12:35;4.10;99.90
1546;DHT22;766;51.502;9.752;2023-02-13T07:15:05;4.00;99.90
1546;DHT22;766;51.502;9.752;2023-02-13T07:17:34;4.20;99.90
1546;DHT22;766;51.502;9.752;2023-02-13T07:20:03;4.30;99.90
1546;DHT22;766;51.502;9.752;2023-02-13T07:22:34;4.20;99.90
1546;DHT22;766;51.502;9.752;2023-02-13T07:25:04;4.10;99.90
1546;DHT22;766;51.502;9.752;2023-02-13T07:27:33;4.10;99.90
1546;DHT22;766;51.502;9.752;2023-02-13T07:30:02;4.20;99.90
1546;DHT22;766;51.502;9.752;2023-02-13T07:32:32;4.20;99.90
1546;DHT22;766;51.502;9.752;2023-02-13T07:35:00;4.20;99.90
1546;DHT22;766;51.502;9.752;2023-02-13T07:37:29;4.10;99.90
1546;DHT22;766;51.502;9.752;2023-02-13T07:39:59;4.10;99.90
1546;DHT22;766;51.502;9.752;2023-02-13T07:42:28;4.20;99.90
1546;DHT22;766;51.502;9.752;2023-02-13T07:44:56;4.20;99.90
1546;DHT22;766;51.502;9.752;2023-02-13T07:47:24;4.40;99.90
1546;DHT22;766;51.502;9.752;2023-02-13T07:49:53;4.30;99.90
1546;DHT22;766;51.502;9.752;2023-02-13T07:52:23;4.40;99.90
1546;DHT22;766;51.502;9.752;2023-02-13T07:54:51;4.40;99.90
1546;DHT22;766;51.502;9.752;2023-02-13T07:57:20;4.40;99.90
1546;DHT22;766;51.502;9.752;2023-02-13T07:59:49;4.30;99.90
1546;DHT22;766;51.502;9.752;2023-02-13T08:02:17;4.20;99.90
1546;DHT22;766;51.502;9.752;2023-02-13T08:04:45;4.30;99.90
1546;DHT22;766;51.502;9.752;2023-02-13T08:07:16;4.30;99.90
1546;DHT22;766;51.502;9.752;2023-02-13T08:09:46;4.30;99.90
1546;DHT22;766;51.502;9.752;2023-02-13T08:12:35;4.20;99.90
1546;DHT22;766;51.502;9.752;2023-02-13T08:15:04;4.30;99.90
1546;DHT22;766;51.502;9.752;2023-02-13T08:17:32;4.30;99.90
1546;DHT22;766;51.502;9.752;2023-02-13T08:20:02;4.30;99.90
1546;DHT22;766;51.502;9.752;2023-02-13T08:22:34;4.30;99.90
1546;DHT22;766;51.502;9.752;2023-02-13T08:25:04;4.30;99.90
1546;DHT22;766;51.502;9.752;2023-02-13T08:27:32;4.40;99.90
1546;DHT22;766;51.502;9.752;2023-02-13T08:30:03;4.40;99.90
1546;DHT22;766;51.502;9.752;2023-02-13T08:32:32;4.30;99.90
1546;DHT22;766;51.502;9.752;2023-02-13T08:35:19;4.40;99.90
1546;DHT22;766;51.502;9.752;2023-02-13T08:37:48;4.40;99.90
1546;DHT22;766;51.502;9.752;2023-02-13T08:40:17;4.30;99.90
1546;DHT22;766;51.502;9.752;2023-02-13T08:42:47;4.30;99.90
1546;DHT22;766;51.502;9.752;2023-02-13T08:45:21;4.40;99.90
1546;DHT22;766;51.502;9.752;2023-02-13T08:47:49;4.40;99.90
1546;DHT22;766;51.502;9.752;2023-02-13T08:50:17;4.50;99.90
1546;DHT22;766;51.502;9.752;2023-02-13T08:52:45;4.50;99.90
1546;DHT22;766;51.502;9.752;2023-02-13T08:55:15;4.60;99.90
1546;DHT22;766;51.502;9.752;2023-02-13T08:57:44;4.60;99.90
1546;DHT22;766;51.502;9.752;2023-02-13T09:00:13;4.60;99.90
1546;DHT22;766;51.502;9.752;2023-02-13T09:02:45;4.60;99.90
1546;DHT22;766;51.502;9.752;2023-02-13T09:05:13;4.50;99.90
1546;DHT22;766;51.502;9.752;2023-02-13T09:07:42;4.50;99.90
1546;DHT22;766;51.502;9.752;2023-02-13T09:10:13;4.40;99.90
1546;DHT22;766;51.502;9.752;2023-02-13T09:12:41;4.50;99.90
1546;DHT22;766;51.502;9.752;2023-02-13T09:15:10;4.50;99.90
1546;DHT22;766;51.502;9.752;2023-02-13T09:17:38;4.50;99.90
1546;DHT22;766;51.502;9.752;2023-02-13T09:20:08;4.60;99.90
1546;DHT22;766;51.502;9.752;2023-02-13T09:22:38;4.60;99.90
1546;DHT22;766;51.502;9.752;2023-02-13T09:25:07;4.70;99.90
1546;DHT22;766;51.502;9.752;2023-02-13T09:27:36;4.70;99.90
1546;DHT22;766;51.502;9.752;2023-02-13T09:30:06;4.80;99.90
1546;DHT22;766;51.502;9.752;2023-02-13T09:32:36;4.80;99.90
1546;DHT22;766;51.502;9.752;2023-02-13T09:35:08;5.00;99.90
1546;DHT22;766;51.502;9.752;2023-02-13T09:37:39;4.90;99.90
1546;DHT22;766;51.502;9.752;2023-02-13T09:40:20;5.00;99.90
1546;DHT22;766;51.502;9.752;2023-02-13T09:42:50;5.00;99.90
1546;DHT22;766;51.502;9.752;2023-02-13T09:45:21;5.00;99.90
1546;DHT22;766;51.502;9.752;2023-02-13T09:47:51;5.00;99.90
1546;DHT22;766;51.502;9.752;2023-02-13T09:50:23;5.10;99.90
1546;DHT22;766;51.502;9.752;2023-02-13T09:53:00;5.20;99.90
1546;DHT22;766;51.502;9.752;2023-02-13T09:55:35;5.20;99.90
1546;DHT22;766;51.502;9.752;2023-02-13T09:58:11;5.30;99.90
1546;DHT22;766;51.502;9.752;2023-02-13T10:00:49;5.30;99.90
1546;DHT22;766;51.502;9.752;2023-02-13T10:03:23;5.30;99.90
1546;DHT22;766;51.502;9.752;2023-02-13T10:06:04;5.20;99.90
1546;DHT22;766;51.502;9.752;2023-02-13T10:08:47;5.40;99.90
1546;DHT22;766;51.502;9.752;2023-02-13T10:11:40;5.40;99.90
1546;DHT22;766;51.502;9.752;2023-02-13T10:14:16;5.40;99.90
1546;DHT22;766;51.502;9.752;2023-02-13T10:16:50;5.40;99.90
1546;DHT22;766;51.502;9.752;2023-02-13T10:19:31;5.50;99.90
1546;DHT22;766;51.502;9.752;2023-02-13T10:22:04;5.50;99.90
1546;DHT22;766;51.502;9.752;2023-02-13T10:24:38;5.60;99.90
1546;DHT22;766;51.502;9.752;2023-02-13T10:27:17;5.70;99.90
1546;DHT22;766;51.502;9.752;2023-02-13T10:29:50;5.80;99.90
1546;DHT22;766;51.502;9.752;2023-02-13T10:32:57;5.80;99.90
1546;DHT22;766;51.502;9.752;2023-02-13T10:35:40;6.10;99.90
1546;DHT22;766;51.502;9.752;2023-02-13T10:38:17;6.50;99.90
1546;DHT22;766;51.502;9.752;2023-02-13T10:40:55;6.60;99.90
1546;DHT22;766;51.502;9.752;2023-02-13T10:43:29;6.90;99.90
1546;DHT22;766;51.502;9.752;2023-02-13T10:46:10;7.40;99.90
1546;DHT22;766;51.502;9.752;2023-02-13T10:48:54;7.40;99.90
1546;DHT22;766;51.502;9.752;2023-02-13T10:51:31;7.30;99.90
1546;DHT22;766;51.502;9.752;2023-02-13T10:54:20;7.40;99.90
1546;DHT22;766;51.502;9.752;2023-02-13T10:56:58;7.90;99.90
1546;DHT22;766;51.502;9.752;2023-02-13T10:59:52;7.70;99.90
1546;DHT22;766;51.502;9.752;2023-02-13T11:02:26;7.50;99.90
1546;DHT22;766;51.502;9.752;2023-02-13T11:04:58;7.50;99.90
1546;DHT22;766;51.502;9.752;2023-02-13T11:07:30;7.60;99.90
1546;DHT22;766;51.502;9.752;2023-02-13T11:10:12;7.70;99.90
1546;DHT22;766;51.502;9.752;2023-02-13T11:12:40;7.90;99.90
1546;DHT22;766;51.502;9.752;2023-02-13T11:15:22;8.10;99.90
1546;DHT22;766;51.502;9.752;2023-02-13T11:17:54;8.30;99.90
1546;DHT22;766;51.502;9.752;2023-02-13T11:20:32;8.70;99.90
1546;DHT22;766;51.502;9.752;2023-02-13T11:23:24;8.80;99.90
1546;DHT22;766;51.502;9.752;2023-02-13T11:25:58;8.80;99.90
1546;DHT22;766;51.502;9.752;2023-02-13T11:28:28;9.10;99.90
1546;DHT22;766;51.502;9.752;2023-02-13T11:31:13;9.30;99.90
1546;DHT22;766;51.502;9.752;2023-02-13T11:33:43;9.80;99.90
1546;DHT22;766;51.502;9.752;2023-02-13T11:36:15;10.10;99.90
1546;DHT22;766;51.502;9.752;2023-02-13T11:39:00;10.20;99.90
1546;DHT22;766;51.502;9.752;2023-02-13T11:41:35;10.50;99.90
1546;DHT22;766;51.502;9.752;2023-02-13T11:44:04;10.50;99.90
1546;DHT22;766;51.502;9.752;2023-02-13T11:46:46;10.80;99.90
1546;DHT22;766;51.502;9.752;2023-02-13T11:49:19;10.80;99.90
1546;DHT22;766;51.502;9.752;2023-02-13T11:51:50;10.50;99.90
1546;DHT22;766;51.502;9.752;2023-02-13T11:54:29;10.20;99.90
1546;DHT22;766;51.502;9.752;2023-02-13T11:57:03;9.90;99.90
1546;DHT22;766;51.502;9.752;2023-02-13T11:59:44;9.70;99.90
1546;DHT22;766;51.502;9.752;2023-02-13T12:02:17;10.10;99.90
1546;DHT22;766;51.502;9.752;2023-02-13T12:04:48;10.20;99.90
1546;DHT22;766;51.502;9.752;2023-02-13T12:07:20;10.30;99.90
1546;DHT22;766;51.502;9.752;2023-02-13T12:09:53;10.60;99.90
1546;DHT22;766;51.502;9.752;2023-02-13T12:12:30;10.50;99.90
1546;DHT22;766;51.502;9.752;2023-02-13T12:15:01;10.90;99.90
1546;DHT22;766;51.502;9.752;2023-02-13T12:17:34;11.20;99.90
1546;DHT22;766;51.502;9.752;2023-02-13T12:20:04;11.50;99.90
1546;DHT22;766;51.502;9.752;2023-02-13T12:22:43;11.60;99.90
1546;DHT22;766;51.502;9.752;2023-02-13T12:25:38;11.70;99.90
1546;DHT22;766;51.502;9.752;2023-02-13T12:28:14;11.80;99.90
1546;DHT22;766;51.502;9.752;2023-02-13T12:34:24;12.60;99.90
1546;DHT22;766;51.502;9.752;2023-02-13T12:37:05;12.40;99.90
1546;DHT22;766;51.502;9.752;2023-02-13T12:39:38;11.90;99.90
1546;DHT22;766;51.502;9.752;2023-02-13T12:42:22;12.20;99.90
1546;DHT22;766;51.502;9.752;2023-02-13T12:45:13;12.00;99.90
1546;DHT22;766;51.502;9.752;2023-02-13T12:47:59;12.30;99.90
1546;DHT22;766;51.502;9.752;2023-02-13T12:50:41;12.40;99.90
1546;DHT22;766;51.502;9.752;2023-02-13T12:53:42;12.50;99.90
1546;DHT22;766;51.502;9.752;2023-02-13T12:56:36;12.40;99.90
1546;DHT22;766;51.502;9.752;2023-02-13T12:59:17;12.30;99.90
1546;DHT22;766;51.502;9.752;2023-02-13T13:05:05;12.40;99.90
1546;DHT22;766;51.502;9.752;2023-02-13T13:07:54;12.60;99.90
1546;DHT22;766;51.502;9.752;2023-02-13T13:10:40;12.60;99.90
1546;DHT22;766;51.502;9.752;2023-02-13T13:13:20;12.10;99.90
1546;DHT22;766;51.502;9.752;2023-02-13T13:15:57;12.60;99.90
1546;DHT22;766;51.502;9.752;2023-02-13T13:18:41;13.60;99.90
1546;DHT22;766;51.502;9.752;2023-02-13T13:21:18;14.10;99.90
1546;DHT22;766;51.502;9.752;2023-02-13T13:23:54;14.30;99.90
1546;DHT22;766;51.502;9.752;2023-02-13T13:26:31;14.50;99.90
1546;DHT22;766;51.502;9.752;2023-02-13T13:29:08;14.10;99.90
1546;DHT22;766;51.502;9.752;2023-02-13T13:31:38;14.10;99.90
1546;DHT22;766;51.502;9.752;2023-02-13T13:34:13;14.50;99.90
1546;DHT22;766;51.502;9.752;2023-02-13T13:36:49;15.30;99.90
1546;DHT22;766;51.502;9.752;2023-02-13T13:39:29;15.70;99.90
1546;DHT22;766;51.502;9.752;2023-02-13T13:42:05;15.30;99.90
1546;DHT22;766;51.502;9.752;2023-02-13T13:44:49;13.50;99.90
1546;DHT22;766;51.502;9.752;2023-02-13T13:47:25;12.70;99.90
1546;DHT22;766;51.502;9.752;2023-02-13T13:49:58;12.20;99.90
1546;DHT22;766;51.502;9.752;2023-02-13T13:52:29;12.00;99.90
1546;DHT22;766;51.502;9.752;2023-02-13T13:55:05;12.50;99.90
1546;DHT22;766;51.502;9.752;2023-02-13T13:57:57;12.00;99.90
1546;DHT22;766;51.502;9.752;2023-02-13T14:00:29;12.10;99.90
1546;DHT22;766;51.502;9.752;2023-02-13T14:03:22;12.10;99.90
1546;DHT22;766;51.502;9.752;2023-02-13T14:06:00;11.80;99.90
1546;DHT22;766;51.502;9.752;2023-02-13T14:11:43;12.40;99.90
1546;DHT22;766;51.502;9.752;2023-02-13T14:14:42;13.00;99.90
1546;DHT22;766;51.502;9.752;2023-02-13T14:17:13;13.60;99.90
1546;DHT22;766;51.502;9.752;2023-02-13T14:19:48;13.80;99.90
1546;DHT22;766;51.502;9.752;2023-02-13T14:22:32;13.90;99.90
1546;DHT22;766;51.502;9.752;2023-02-13T14:25:05;14.30;99.90
1546;DHT22;766;51.502;9.752;2023-02-13T14:27:37;14.10;99.90
1546;DHT22;766;51.502;9.752;2023-02-13T14:30:21;13.90;99.90
1546;DHT22;766;51.502;9.752;2023-02-13T14:32:56;13.40;99.90
1546;DHT22;766;51.502;9.752;2023-02-13T14:35:29;13.30;99.90
1546;DHT22;766;51.502;9.752;2023-02-13T14:38:02;13.40;99.90
1546;DHT22;766;51.502;9.752;2023-02-13T14:40:45;13.30;99.90
1546;DHT22;766;51.502;9.752;2023-02-13T14:43:24;13.00;99.90
1546;DHT22;766;51.502;9.752;2023-02-13T14:45:56;12.50;99.90
1546;DHT22;766;51.502;9.752;2023-02-13T14:48:38;12.20;99.90
1546;DHT22;766;51.502;9.752;2023-02-13T14:51:15;11.70;99.90
1546;DHT22;766;51.502;9.752;2023-02-13T14:53:49;11.30;99.90
1546;DHT22;766;51.502;9.752;2023-02-13T14:56:21;10.70;99.90
1546;DHT22;766;51.502;9.752;2023-02-13T14:59:04;10.50;99.90
1546;DHT22;766;51.502;9.752;2023-02-13T15:01:36;10.40;99.90
1546;DHT22;766;51.502;9.752;2023-02-13T15:04:16;10.30;99.90
1546;DHT22;766;51.502;9.752;2023-02-13T15:06:48;10.10;99.90
1546;DHT22;766;51.502;9.752;2023-02-13T15:09:25;9.70;99.90
1546;DHT22;766;51.502;9.752;2023-02-13T15:11:54;9.60;99.90
1546;DHT22;766;51.502;9.752;2023-02-13T15:14:30;10.00;99.90
1546;DHT22;766;51.502;9.752;2023-02-13T15:17:02;10.10;99.90
1546;DHT22;766;51.502;9.752;2023-02-13T15:19:35;9.70;99.90
1546;DHT22;766;51.502;9.752;2023-02-13T15:22:06;9.60;99.90
1546;DHT22;766;51.502;9.752;2023-02-13T15:24:44;9.70;99.90
1546;DHT22;766;51.502;9.752;2023-02-13T15:27:18;9.60;99.90
1546;DHT22;766;51.502;9.752;2023-02-13T15:29:56;9.50;99.90
1546;DHT22;766;51.502;9.752;2023-02-13T15:32:30;9.30;99.90
1546;DHT22;766;51.502;9.752;2023-02-13T15:35:16;9.30;99.90
1546;DHT22;766;51.502;9.752;2023-02-13T15:37:48;9.40;99.90
1546;DHT22;766;51.502;9.752;2023-02-13T15:40:22;9.50;99.90
1546;DHT22;766;51.502;9.752;2023-02-13T15:42:51;9.30;99.90
1546;DHT22;766;51.502;9.752;2023-02-13T15:45:24;9.30;99.90
1546;DHT22;766;51.502;9.752;2023-02-13T15:47:55;9.00;99.90
1546;DHT22;766;51.502;9.752;2023-02-13T15:50:28;8.90;99.90
1546;DHT22;766;51.502;9.752;2023-02-13T15:52:59;9.00;99.90
1546;DHT22;766;51.502;9.752;2023-02-13T15:55:32;8.80;99.90
1546;DHT22;766;51.502;9.752;2023-02-13T15:58:03;8.90;99.90
1546;DHT22;766;51.502;9.752;2023-02-13T16:00:35;8.60;99.90
1546;DHT22;766;51.502;9.752;2023-02-13T16:03:06;8.50;99.90
1546;DHT22;766;51.502;9.752;2023-02-13T16:05:39;8.50;99.90
1546;DHT22;766;51.502;9.752;2023-02-13T16:08:29;8.30;99.90
1546;DHT22;766;51.502;9.752;2023-02-13T16:11:25;8.50;99.90
1546;DHT22;766;51.502;9.752;2023-02-13T16:14:08;8.40;99.90
1546;DHT22;766;51.502;9.752;2023-02-13T16:16:48;8.20;99.90
1546;DHT22;766;51.502;9.752;2023-02-13T16:19:33;8.00;99.90
1546;DHT22;766;51.502;9.752;2023-02-13T16:22:12;7.90;99.90
1546;DHT22;766;51.502;9.752;2023-02-13T16:24:47;7.90;99.90
1546;DHT22;766;51.502;9.752;2023-02-13T16:27:17;7.80;99.90
1546;DHT22;766;51.502;9.752;2023-02-13T16:29:51;7.60;99.90
1546;DHT22;766;51.502;9.752;2023-02-13T16:32:27;7.60;99.90
1546;DHT22;766;51.502;9.752;2023-02-13T16:35:15;7.70;99.90
1546;DHT22;766;51.502;9.752;2023-02-13T16:37:52;7.60;99.90
1546;DHT22;766;51.502;9.752;2023-02-13T16:40:36;7.60;99.90
1546;DHT22;766;51.502;9.752;2023-02-13T16:43:41;7.70;99.90
1546;DHT22;766;51.502;9.752;2023-02-13T16:46:21;7.70;99.90
1546;DHT22;766;51.502;9.752;2023-02-13T16:49:19;7.50;99.90
1546;DHT22;766;51.502;9.752;2023-02-13T16:51:51;7.60;99.90
1546;DHT22;766;51.502;9.752;2023-02-13T16:54:44;7.60;99.90
1546;DHT22;766;51.502;9.752;2023-02-13T16:57:21;7.50;99.90
1546;DHT22;766;51.502;9.752;2023-02-13T16:59:59;7.40;99.90
1546;DHT22;766;51.502;9.752;2023-02-13T17:02:31;7.40;99.90
1546;DHT22;766;51.502;9.752;2023-02-13T17:05:15;7.40;99.90
1546;DHT22;766;51.502;9.752;2023-02-13T17:07:48;7.30;99.90
1546;DHT22;766;51.502;9.752;2023-02-13T17:10:19;7.20;99.90
1546;DHT22;766;51.502;9.752;2023-02-13T17:12:49;7.10;99.90
1546;DHT22;766;51.502;9.752;2023-02-13T17:15:21;7.00;99.90
1546;DHT22;766;51.502;9.752;2023-02-13T17:17:51;7.00;99.90
1546;DHT22;766;51.502;9.752;2023-02-13T17:20:22;6.80;99.90
1546;DHT22;766;51.502;9.752;2023-02-13T17:22:52;6.60;99.90
1546;DHT22;766;51.502;9.752;2023-02-13T17:25:23;6.20;99.90
1546;DHT22;766;51.502;9.752;2023-02-13T17:27:53;6.00;99.90
1546;DHT22;766;51.502;9.752;2023-02-13T17:30:25;6.10;99.90
1546;DHT22;766;51.502;9.752;2023-02-13T17:32:58;6.20;99.90
1546;DHT22;766;51.502;9.752;2023-02-13T17:35:28;5.70;99.90
1546;DHT22;766;51.502;9.752;2023-02-13T17:37:57;5.30;99.90
1546;DHT22;766;51.502;9.752;2023-02-13T17:40:26;5.30;99.90